Time;durP1;ratioP1;P1;durP2;ratioP2;P2;SDS_P1;SDS_P2;PMS_P1;PMS_P2;Temp;Humidity;BMP_temperature;BMP_pressure;BME280_temperature;BME280_humidity;BME280_pressure;Samples;Min_cycle;Max_cycle;Signal;HPM_P1;HPM_P2
2022/05/31 00:02:19;;;;;;;;;14.75;12.75;;;;;;;;4999672;28;51259;-55
2022/05/31 00:05:06;;;;;;;;;17.50;14.00;;;;;;;;4999256;28;51161;-56
2022/05/31 00:08:03;;;;;;;;;14.75;12.00;;;;;;;;4998943;28;51192;-55
2022/05/31 00:11:00;;;;;;;;;13.00;10.00;;;;;;;;4998915;28;51097;-55
2022/05/31 00:13:47;;;;;;;;;13.50;12.50;;;;;;;;5061478;28;51246;-55
2022/05/31 00:16:31;;;;;;;;;17.50;13.75;;;;;;;;5061674;28;51211;-55
2022/05/31 00:19:17;;;;;;;;;16.50;13.50;;;;;;;;5061174;28;51046;-55
2022/05/31 00:22:10;;;;;;;;;17.25;12.25;;;;;;;;5061619;28;51061;-56
2022/05/31 00:24:56;;;;;;;;;19.00;13.00;;;;;;;;5061242;28;51240;-57
2022/05/31 00:27:40;;;;;;;;;21.00;14.25;;;;;;;;5060242;28;51044;-54
2022/05/31 00:30:27;;;;;;;;;14.50;12.50;;;;;;;;5061153;28;51112;-56
2022/05/31 00:33:15;;;;;;;;;16.75;14.25;;;;;;;;5061564;28;51153;-54
2022/05/31 00:36:00;;;;;;;;;20.00;11.50;;;;;;;;5060715;28;51452;-56
2022/05/31 00:38:45;;;;;;;;;11.00;8.50;;;;;;;;5061111;28;51099;-57
2022/05/31 00:41:29;;;;;;;;;14.25;13.00;;;;;;;;5064557;27;51063;-55
2022/05/31 00:44:16;;;;;;;;;12.25;12.25;;;;;;;;5081093;27;51172;-55
2022/05/31 00:47:08;;;;;;;;;14.00;12.50;;;;;;;;5081367;27;51174;-57
2022/05/31 00:49:58;;;;;;;;;15.50;13.50;;;;;;;;5081107;27;51098;-55
2022/05/31 00:53:01;;;;;;;;;19.00;12.75;;;;;;;;5081510;27;51154;-54
2022/05/31 00:55:51;;;;;;;;;15.75;12.00;;;;;;;;5081194;27;51008;-56
2022/05/31 00:58:37;;;;;;;;;17.75;13.25;;;;;;;;5081328;27;51091;-56
2022/05/31 01:01:22;;;;;;;;;14.00;12.00;;;;;;;;5080851;27;51098;-57
2022/05/31 01:04:07;;;;;;;;;14.75;10.75;;;;;;;;5075281;27;51058;-57
2022/05/31 01:07:03;;;;;;;;;12.00;11.50;;;;;;;;5081112;27;51323;-57
2022/05/31 01:09:47;;;;;;;;;15.75;12.75;;;;;;;;5080951;27;51093;-55
2022/05/31 01:12:32;;;;;;;;;19.75;13.75;;;;;;;;5080987;27;51151;-56
2022/05/31 01:15:18;;;;;;;;;14.00;12.50;;;;;;;;5080581;27;51174;-55
2022/05/31 01:18:03;;;;;;;;;8.75;8.25;;;;;;;;5080668;27;51338;-56
2022/05/31 01:20:48;;;;;;;;;16.75;12.50;;;;;;;;5079973;27;51177;-56
2022/05/31 01:23:42;;;;;;;;;16.00;13.00;;;;;;;;5080784;27;51145;-55
2022/05/31 01:26:48;;;;;;;;;17.50;13.00;;;;;;;;5080277;27;51458;-57
2022/05/31 01:29:33;;;;;;;;;14.75;12.00;;;;;;;;5049736;27;51115;-56
2022/05/31 01:32:18;;;;;;;;;11.00;10.00;;;;;;;;5039995;28;51568;-56
2022/05/31 01:35:08;;;;;;;;;15.00;12.75;;;;;;;;5024582;28;51243;-55
2022/05/31 01:38:00;;;;;;;;;11.50;10.50;;;;;;;;5040119;28;51080;-56
2022/05/31 01:40:53;;;;;;;;;18.00;14.00;;;;;;;;5039751;28;51300;-56
2022/05/31 01:43:45;;;;;;;;;13.25;13.00;;;;;;;;5026821;28;51474;-55
2022/05/31 01:46:31;;;;;;;;;19.00;12.00;;;;;;;;5011862;28;51208;-56
2022/05/31 01:49:17;;;;;;;;;15.00;10.50;;;;;;;;5019773;28;51170;-56
2022/05/31 01:52:04;;;;;;;;;17.25;12.00;;;;;;;;5019347;28;51491;-56
2022/05/31 01:54:49;;;;;;;;;13.25;11.00;;;;;;;;5019315;28;51040;-57
2022/05/31 01:57:34;;;;;;;;;15.25;13.25;;;;;;;;5019262;28;51437;-55
2022/05/31 02:00:20;;;;;;;;;13.75;12.00;;;;;;;;5019178;28;51084;-55
2022/05/31 02:03:16;;;;;;;;;16.25;12.00;;;;;;;;5019287;28;51422;-57
2022/05/31 02:06:04;;;;;;;;;11.75;10.50;;;;;;;;5019344;28;51124;-56
2022/05/31 02:08:48;;;;;;;;;22.75;13.25;;;;;;;;5029038;28;51518;-55
2022/05/31 02:11:36;;;;;;;;;13.25;9.00;;;;;;;;5018842;28;51059;-55
2022/05/31 02:14:19;;;;;;;;;14.25;12.00;;;;;;;;5019477;28;51033;-54
2022/05/31 02:17:17;;;;;;;;;15.50;11.00;;;;;;;;5019145;28;51423;-57
2022/05/31 02:20:17;;;;;;;;;16.75;15.25;;;;;;;;5019097;28;51014;-57
2022/05/31 02:23:01;;;;;;;;;16.00;12.00;;;;;;;;5018971;28;51438;-57
2022/05/31 02:25:47;;;;;;;;;13.50;11.50;;;;;;;;5019386;28;51194;-56
2022/05/31 02:28:31;;;;;;;;;17.25;11.50;;;;;;;;5033059;27;51442;-54
2022/05/31 02:31:17;;;;;;;;;15.25;10.75;;;;;;;;5079557;28;51083;-55
2022/05/31 02:34:02;;;;;;;;;20.25;11.75;;;;;;;;5079695;28;51394;-54
2022/05/31 02:36:49;;;;;;;;;18.00;12.00;;;;;;;;5079197;28;51100;-57
2022/05/31 02:39:33;;;;;;;;;15.00;12.75;;;;;;;;5079680;28;51033;-54
2022/05/31 02:42:27;;;;;;;;;13.00;10.75;;;;;;;;5079556;28;51152;-58
2022/05/31 02:45:14;;;;;;;;;12.00;9.50;;;;;;;;5079648;28;51152;-55
2022/05/31 02:48:04;;;;;;;;;13.50;10.50;;;;;;;;5079469;28;51129;-58
2022/05/31 02:50:48;;;;;;;;;17.00;11.75;;;;;;;;5079253;28;51109;-55
2022/05/31 02:53:32;;;;;;;;;14.25;12.25;;;;;;;;5079175;28;51436;-56
2022/05/31 02:56:17;;;;;;;;;14.00;12.25;;;;;;;;5079508;28;51081;-54
2022/05/31 02:59:03;;;;;;;;;11.25;9.50;;;;;;;;5079306;28;51041;-55
2022/05/31 03:01:51;;;;;;;;;17.00;14.00;;;;;;;;5079093;28;51196;-54
2022/05/31 03:04:41;;;;;;;;;17.00;13.75;;;;;;;;5079581;28;50999;-58
2022/05/31 03:07:47;;;;;;;;;12.00;10.25;;;;;;;;5078502;28;51052;-56
2022/05/31 03:10:34;;;;;;;;;14.00;11.50;;;;;;;;5063881;28;51066;-56
2022/05/31 03:13:20;;;;;;;;;20.50;15.25;;;;;;;;5079533;28;51533;-57
2022/05/31 03:16:05;;;;;;;;;21.50;18.25;;;;;;;;5079292;28;51014;-56
2022/05/31 03:19:10;;;;;;;;;16.00;14.00;;;;;;;;5078809;28;51486;-56
2022/05/31 03:21:58;;;;;;;;;38.00;29.00;;;;;;;;5079005;28;51194;-55
2022/05/31 03:25:07;;;;;;;;;25.50;19.00;;;;;;;;5073246;28;50991;-54
2022/05/31 03:28:09;;;;;;;;;19.75;14.25;;;;;;;;5077995;28;51109;-56
2022/05/31 03:30:54;;;;;;;;;18.50;14.50;;;;;;;;5078098;28;51135;-56
2022/05/31 03:33:38;;;;;;;;;16.00;12.25;;;;;;;;5078886;28;51536;-58
2022/05/31 03:36:23;;;;;;;;;14.25;12.25;;;;;;;;5079169;28;51129;-56
2022/05/31 03:39:07;;;;;;;;;15.25;14.50;;;;;;;;5078905;28;51535;-56
2022/05/31 03:41:54;;;;;;;;;14.00;10.25;;;;;;;;5079191;27;51019;-55
2022/05/31 03:44:39;;;;;;;;;19.50;12.75;;;;;;;;5077661;27;51077;-55
2022/05/31 03:47:26;;;;;;;;;12.75;9.50;;;;;;;;5062156;28;51107;-55
2022/05/31 03:50:15;;;;;;;;;12.50;11.25;;;;;;;;5062226;28;52102;-57
2022/05/31 03:52:59;;;;;;;;;12.00;11.00;;;;;;;;5046423;28;51023;-57
2022/05/31 03:55:45;;;;;;;;;15.00;10.75;;;;;;;;5062284;28;51090;-56
2022/05/31 03:58:36;;;;;;;;;12.25;11.00;;;;;;;;5061807;28;51166;-54
2022/05/31 04:01:24;;;;;;;;;18.00;10.50;;;;;;;;5062021;28;51065;-54
2022/05/31 04:04:09;;;;;;;;;14.75;11.00;;;;;;;;5061770;28;51005;-57
2022/05/31 04:06:54;;;;;;;;;15.00;11.25;;;;;;;;5062005;28;51012;-56
2022/05/31 04:09:50;;;;;;;;;13.00;11.25;;;;;;;;5061645;28;51406;-56
2022/05/31 04:12:38;;;;;;;;;13.25;11.00;;;;;;;;5061680;28;51125;-57
2022/05/31 04:15:27;;;;;;;;;19.25;14.25;;;;;;;;5061808;28;51386;-54
2022/05/31 04:18:15;;;;;;;;;17.00;13.50;;;;;;;;5061384;28;51009;-55
2022/05/31 04:21:01;;;;;;;;;16.75;12.50;;;;;;;;5061632;28;51196;-55
2022/05/31 04:24:08;;;;;;;;;14.25;12.00;;;;;;;;5061523;28;51185;-56
2022/05/31 04:26:53;;;;;;;;;18.75;12.00;;;;;;;;5060735;28;51186;-55
2022/05/31 04:29:39;;;;;;;;;25.00;17.50;;;;;;;;5061147;28;51111;-55
2022/05/31 04:32:25;;;;;;;;;14.25;11.75;;;;;;;;5061637;28;51019;-57
2022/05/31 04:35:10;;;;;;;;;23.50;13.00;;;;;;;;5056567;28;50948;-55
2022/05/31 04:37:56;;;;;;;;;17.25;12.25;;;;;;;;5053143;28;51407;-56
2022/05/31 04:40:44;;;;;;;;;26.50;25.00;;;;;;;;5061126;28;51162;-53
2022/05/31 04:43:30;;;;;;;;;24.00;18.25;;;;;;;;5055825;28;51080;-57
2022/05/31 04:46:24;;;;;;;;;21.00;18.00;;;;;;;;5061252;28;51103;-56
2022/05/31 04:49:10;;;;;;;;;27.50;21.25;;;;;;;;5060773;28;51169;-53
2022/05/31 04:52:06;;;;;;;;;19.25;14.50;;;;;;;;5054054;28;51082;-55
2022/05/31 04:54:52;;;;;;;;;13.75;11.50;;;;;;;;5060756;28;51063;-56
2022/05/31 04:57:39;;;;;;;;;16.00;12.75;;;;;;;;5061096;28;50999;-56
2022/05/31 05:00:28;;;;;;;;;11.50;11.50;;;;;;;;5060305;28;51147;-56
2022/05/31 05:03:19;;;;;;;;;9.25;9.25;;;;;;;;5060537;28;51117;-56
2022/05/31 05:06:06;;;;;;;;;15.25;11.00;;;;;;;;5052267;28;51794;-56
2022/05/31 05:08:51;;;;;;;;;14.50;11.00;;;;;;;;5060429;28;51011;-56
2022/05/31 05:11:41;;;;;;;;;12.25;9.25;;;;;;;;5056817;28;51354;-56
2022/05/31 05:14:54;;;;;;;;;6.00;6.00;;;;;;;;5060427;28;51529;-56
2022/05/31 05:17:52;;;;;;;;;9.00;7.75;;;;;;;;5060477;28;51140;-56
2022/05/31 05:20:37;;;;;;;;;8.00;6.50;;;;;;;;5060039;28;51185;-56
2022/05/31 05:23:21;;;;;;;;;8.25;6.00;;;;;;;;5060324;28;51248;-56
2022/05/31 05:26:32;;;;;;;;;8.75;7.75;;;;;;;;5060288;28;51550;-57
2022/05/31 05:32:29;;;;;;;;;9.25;9.25;;;;;;;;5080434;27;51437;-56
2022/05/31 05:35:14;;;;;;;;;8.00;8.00;;;;;;;;5080381;27;51155;-57
2022/05/31 05:38:02;;;;;;;;;7.50;7.25;;;;;;;;5080706;27;51055;-54
2022/05/31 05:41:07;;;;;;;;;6.00;6.00;;;;;;;;5080167;27;51428;-57
2022/05/31 05:43:53;;;;;;;;;8.25;7.00;;;;;;;;5067782;27;52613;-56
2022/05/31 05:47:02;;;;;;;;;12.00;10.50;;;;;;;;5059877;28;51844;-55
2022/05/31 05:49:47;;;;;;;;;12.75;8.50;;;;;;;;5062102;27;51202;-56
2022/05/31 05:52:32;;;;;;;;;8.75;8.50;;;;;;;;5079915;27;51086;-57
2022/05/31 05:55:16;;;;;;;;;28.25;20.50;;;;;;;;5080119;27;51144;-53
2022/05/31 05:58:03;;;;;;;;;17.00;14.25;;;;;;;;5080220;27;51427;-55
2022/05/31 06:01:29;;;;;;;;;17.00;14.25;;;;;;;;5059372;28;51119;-57
2022/05/31 06:04:30;;;;;;;;;14.25;12.25;;;;;;;;5059945;28;51154;-56
2022/05/31 06:07:50;;;;;;;;;15.00;13.00;;;;;;;;5059386;28;51442;-57
2022/05/31 06:10:50;;;;;;;;;14.00;14.00;;;;;;;;5057063;28;51101;-56
2022/05/31 06:13:40;;;;;;;;;12.50;12.50;;;;;;;;5079692;27;51040;-53
2022/05/31 06:16:34;;;;;;;;;19.75;17.25;;;;;;;;5080093;27;51068;-56
2022/05/31 06:19:27;;;;;;;;;18.00;16.00;;;;;;;;5064969;28;51032;-55
2022/05/31 06:22:12;;;;;;;;;16.50;14.50;;;;;;;;5078443;27;51080;-56
2022/05/31 06:24:58;;;;;;;;;16.50;14.00;;;;;;;;5078304;27;51301;-56
2022/05/31 06:28:04;;;;;;;;;16.75;12.50;;;;;;;;5078367;27;51069;-55
2022/05/31 06:30:51;;;;;;;;;19.00;13.00;;;;;;;;5079383;28;51086;-56
2022/05/31 06:33:35;;;;;;;;;13.75;12.75;;;;;;;;5079520;28;51362;-54
2022/05/31 06:36:21;;;;;;;;;13.50;12.25;;;;;;;;5079341;28;51188;-54
2022/05/31 06:39:13;;;;;;;;;14.50;14.00;;;;;;;;5079607;28;51142;-57
2022/05/31 06:41:58;;;;;;;;;16.25;14.50;;;;;;;;5078218;28;51082;-56
2022/05/31 06:44:45;;;;;;;;;18.75;15.25;;;;;;;;5079358;28;51361;-56
2022/05/31 06:47:52;;;;;;;;;14.00;12.25;;;;;;;;5079693;28;51069;-56
2022/05/31 06:50:38;;;;;;;;;22.75;16.75;;;;;;;;5079600;28;51505;-56
2022/05/31 06:59:32;;;;;;;;;16.75;16.00;;;;;;;;5079190;28;51102;-56
2022/05/31 07:02:19;;;;;;;;;30.25;23.75;;;;;;;;5078681;28;51465;-56
2022/05/31 07:05:24;;;;;;;;;26.50;23.25;;;;;;;;5058712;28;51213;-54
2022/05/31 07:08:30;;;;;;;;;27.25;24.75;;;;;;;;5059335;28;51002;-57
2022/05/31 07:11:17;;;;;;;;;26.25;23.25;;;;;;;;5058708;28;51109;-57
2022/05/31 07:14:13;;;;;;;;;31.25;27.00;;;;;;;;5058974;28;51423;-57
2022/05/31 07:16:58;;;;;;;;;38.75;32.50;;;;;;;;5059057;28;51533;-57
2022/05/31 07:19:44;;;;;;;;;36.25;32.25;;;;;;;;5062560;28;51140;-55
2022/05/31 07:22:32;;;;;;;;;34.00;31.50;;;;;;;;5062999;28;51118;-56
2022/05/31 07:25:16;;;;;;;;;48.75;40.25;;;;;;;;5062335;28;51137;-55
2022/05/31 07:28:03;;;;;;;;;50.50;41.00;;;;;;;;5062677;28;51157;-55
2022/05/31 07:31:00;;;;;;;;;46.00;36.50;;;;;;;;5062308;28;51040;-56
2022/05/31 07:33:48;;;;;;;;;55.25;45.25;;;;;;;;5062740;28;51170;-55
2022/05/31 07:36:53;;;;;;;;;60.00;46.50;;;;;;;;4999845;28;51249;-57
2022/05/31 07:39:52;;;;;;;;;57.25;44.00;;;;;;;;4999769;28;51184;-54
2022/05/31 07:42:38;;;;;;;;;61.00;48.25;;;;;;;;5000028;28;51746;-55
2022/05/31 07:45:49;;;;;;;;;59.50;45.75;;;;;;;;4999593;28;51115;-56
2022/05/31 07:48:52;;;;;;;;;61.75;46.50;;;;;;;;4922270;28;51200;-57
2022/05/31 07:51:36;;;;;;;;;55.75;43.00;;;;;;;;4921823;28;51626;-45
2022/05/31 07:54:22;;;;;;;;;54.75;41.75;;;;;;;;4921799;28;51780;-45
2022/05/31 07:57:07;;;;;;;;;51.25;42.25;;;;;;;;4902843;28;51097;-45
2022/05/31 08:00:17;;;;;;;;;48.50;40.25;;;;;;;;4903013;28;51292;-45
2022/05/31 08:03:02;;;;;;;;;52.75;42.25;;;;;;;;4902614;28;51024;-46
2022/05/31 08:05:46;;;;;;;;;51.25;41.00;;;;;;;;4900675;28;51110;-43
2022/05/31 08:08:30;;;;;;;;;46.25;37.50;;;;;;;;4902496;28;51786;-45
2022/05/31 08:11:17;;;;;;;;;48.25;39.25;;;;;;;;4944525;28;51048;-45
2022/05/31 08:14:05;;;;;;;;;48.00;39.25;;;;;;;;4979388;28;51207;-44
2022/05/31 08:17:03;;;;;;;;;45.75;37.75;;;;;;;;4979352;28;51495;-46
2022/05/31 08:19:54;;;;;;;;;44.00;37.00;;;;;;;;4979510;28;51772;-44
2022/05/31 08:22:56;;;;;;;;;49.00;41.00;;;;;;;;4951980;28;51107;-44
2022/05/31 08:25:43;;;;;;;;;52.00;40.25;;;;;;;;4979755;28;51101;-46
2022/05/31 08:28:27;;;;;;;;;49.25;38.75;;;;;;;;4978824;28;51368;-45
2022/05/31 08:31:31;;;;;;;;;44.25;37.25;;;;;;;;4978986;28;51236;-44
2022/05/31 08:34:19;;;;;;;;;44.00;34.25;;;;;;;;4921291;28;51715;-44
2022/05/31 08:37:05;;;;;;;;;44.50;34.50;;;;;;;;4919262;28;51189;-47
2022/05/31 08:39:55;;;;;;;;;42.75;34.75;;;;;;;;4920763;28;51200;-47
2022/05/31 08:42:40;;;;;;;;;41.00;34.75;;;;;;;;4920621;28;51142;-47
2022/05/31 08:45:40;;;;;;;;;40.00;32.25;;;;;;;;4906865;28;51720;-47
2022/05/31 08:48:31;;;;;;;;;36.25;31.00;;;;;;;;4920361;28;51165;-45
2022/05/31 08:57:40;;;;;;;;;35.25;31.00;;;;;;;;4920907;28;51243;-44
2022/05/31 09:00:48;;;;;;;;;33.25;29.25;;;;;;;;4978326;28;51578;-47
2022/05/31 09:03:48;;;;;;;;;31.25;29.00;;;;;;;;4978021;28;51270;-47
2022/05/31 09:07:05;;;;;;;;;37.00;31.00;;;;;;;;4977984;28;51228;-46
2022/05/31 09:10:07;;;;;;;;;33.25;29.00;;;;;;;;4978323;28;51612;-48
2022/05/31 09:13:00;;;;;;;;;36.75;30.00;;;;;;;;5068601;27;52978;-44
2022/05/31 09:15:52;;;;;;;;;34.75;31.25;;;;;;;;5064801;27;51093;-44
2022/05/31 09:18:39;;;;;;;;;31.75;27.75;;;;;;;;5080678;27;52058;-44
2022/05/31 09:21:46;;;;;;;;;33.25;29.00;;;;;;;;5079427;27;51104;-45
2022/05/31 09:24:41;;;;;;;;;35.50;27.75;;;;;;;;5080037;27;51122;-46
2022/05/31 09:27:54;;;;;;;;;32.75;28.50;;;;;;;;5091882;27;51563;-46
2022/05/31 09:30:45;;;;;;;;;36.00;30.00;;;;;;;;5075550;27;51118;-44
2022/05/31 09:34:15;;;;;;;;;36.25;31.25;;;;;;;;5080065;27;51012;-45
2022/05/31 09:37:20;;;;;;;;;44.00;33.75;;;;;;;;5047805;27;51344;-44
2022/05/31 09:40:14;;;;;;;;;41.00;35.50;;;;;;;;5078656;27;51032;-46
2022/05/31 09:43:02;;;;;;;;;38.50;33.75;;;;;;;;5079568;27;51084;-48
2022/05/31 09:45:58;;;;;;;;;33.00;28.50;;;;;;;;5080011;27;51105;-44
2022/05/31 09:48:48;;;;;;;;;15.75;15.75;;;;;;;;5070475;27;51545;-43
2022/05/31 09:51:39;;;;;;;;;19.50;16.25;;;;;;;;5079673;27;51144;-44
2022/05/31 09:57:28;;;;;;;;;17.25;16.25;;;;;;;;5079558;27;51011;-43
2022/05/31 10:00:17;;;;;;;;;28.50;21.00;;;;;;;;5080020;27;51098;-45
2022/05/31 10:03:11;;;;;;;;;20.25;19.00;;;;;;;;5079022;27;51069;-45
2022/05/31 10:06:04;;;;;;;;;18.00;13.00;;;;;;;;5079246;27;51245;-43
2022/05/31 10:08:51;;;;;;;;;11.00;10.00;;;;;;;;5079070;27;50988;-43
2022/05/31 10:11:44;;;;;;;;;16.50;11.25;;;;;;;;5079775;27;51124;-43
2022/05/31 10:14:33;;;;;;;;;12.50;8.25;;;;;;;;5078418;27;51569;-43
2022/05/31 10:17:35;;;;;;;;;11.25;10.75;;;;;;;;5078341;27;51147;-44
2022/05/31 10:20:24;;;;;;;;;14.50;10.00;;;;;;;;5079401;27;51387;-44
2022/05/31 10:23:13;;;;;;;;;13.25;11.50;;;;;;;;5078786;27;51144;-45
2022/05/31 10:26:05;;;;;;;;;12.00;10.50;;;;;;;;5078507;27;51165;-43
2022/05/31 10:28:59;;;;;;;;;11.25;8.50;;;;;;;;5072828;27;51094;-46
2022/05/31 10:31:46;;;;;;;;;14.00;11.25;;;;;;;;5077137;28;51537;-44
2022/05/31 10:34:33;;;;;;;;;11.25;8.25;;;;;;;;5077621;28;51183;-45
2022/05/31 10:37:26;;;;;;;;;14.75;12.00;;;;;;;;5076212;28;51023;-42
2022/05/31 10:40:18;;;;;;;;;15.75;14.25;;;;;;;;5078462;28;51114;-42
2022/05/31 10:43:22;;;;;;;;;18.75;14.75;;;;;;;;5079024;28;51094;-43
2022/05/31 10:46:25;;;;;;;;;14.75;12.50;;;;;;;;5078946;28;51079;-46
2022/05/31 10:49:21;;;;;;;;;14.50;12.75;;;;;;;;5078974;28;51125;-43
2022/05/31 10:52:17;;;;;;;;;12.50;10.50;;;;;;;;5065999;27;51247;-46
2022/05/31 10:55:04;;;;;;;;;14.50;10.50;;;;;;;;5082606;27;51333;-43
2022/05/31 10:58:01;;;;;;;;;16.75;13.25;;;;;;;;5083261;27;51400;-43
2022/05/31 11:00:52;;;;;;;;;17.75;14.75;;;;;;;;5082709;27;51142;-43
2022/05/31 11:03:55;;;;;;;;;15.75;14.75;;;;;;;;5091696;27;51253;-42
2022/05/31 11:07:13;;;;;;;;;29.50;26.50;;;;;;;;5082217;27;51048;-44
2022/05/31 11:13:18;;;;;;;;;22.25;18.00;;;;;;;;5083375;27;51104;-44
2022/05/31 11:16:18;;;;;;;;;9.75;8.00;;;;;;;;5082242;27;51240;-44
2022/05/31 11:19:04;;;;;;;;;16.50;11.25;;;;;;;;5077731;27;51164;-43
2022/05/31 11:21:48;;;;;;;;;8.00;8.00;;;;;;;;5081588;27;51459;-43
2022/05/31 11:24:41;;;;;;;;;8.50;8.25;;;;;;;;5074537;27;51236;-44
2022/05/31 11:27:38;;;;;;;;;15.25;12.25;;;;;;;;5082086;27;51156;-45
2022/05/31 11:30:41;;;;;;;;;10.75;9.00;;;;;;;;5082859;27;51028;-45
2022/05/31 11:33:44;;;;;;;;;14.00;9.75;;;;;;;;5082447;27;51491;-45
2022/05/31 11:36:42;;;;;;;;;10.75;5.75;;;;;;;;5081619;27;51144;-45
2022/05/31 11:39:47;;;;;;;;;11.50;10.00;;;;;;;;5081873;27;51192;-45
2022/05/31 11:42:50;;;;;;;;;6.50;6.25;;;;;;;;5066340;27;51132;-46
2022/05/31 11:45:49;;;;;;;;;9.75;8.00;;;;;;;;5064032;27;51556;-44
2022/05/31 11:48:39;;;;;;;;;11.75;10.00;;;;;;;;5073780;27;51141;-45
2022/05/31 11:51:33;;;;;;;;;8.00;7.25;;;;;;;;5070133;27;51522;-44
2022/05/31 11:54:29;;;;;;;;;9.50;9.50;;;;;;;;5073035;27;51110;-44
2022/05/31 11:57:32;;;;;;;;;9.25;6.00;;;;;;;;5069405;27;51121;-44
2022/05/31 12:00:17;;;;;;;;;11.50;9.25;;;;;;;;5071255;27;51032;-43
2022/05/31 12:03:07;;;;;;;;;12.25;10.00;;;;;;;;5072374;27;51123;-46
2022/05/31 12:05:56;;;;;;;;;15.00;10.50;;;;;;;;5074177;27;51361;-47
2022/05/31 12:08:59;;;;;;;;;8.00;7.00;;;;;;;;5072488;27;51168;-45
2022/05/31 12:11:46;;;;;;;;;11.50;8.25;;;;;;;;5069420;27;51122;-44
2022/05/31 12:14:32;;;;;;;;;10.25;9.00;;;;;;;;5078148;27;51077;-46
2022/05/31 12:17:19;;;;;;;;;12.25;8.75;;;;;;;;5081656;27;51495;-44
2022/05/31 12:20:16;;;;;;;;;13.75;8.75;;;;;;;;5081090;27;51172;-45
2022/05/31 12:23:09;;;;;;;;;6.25;5.00;;;;;;;;5081380;27;51085;-44
2022/05/31 12:25:55;;;;;;;;;8.25;7.00;;;;;;;;5081190;27;51136;-44
2022/05/31 12:28:57;;;;;;;;;8.50;7.00;;;;;;;;5081515;27;51196;-45
2022/05/31 12:31:46;;;;;;;;;7.00;5.50;;;;;;;;5081294;27;51254;-44
2022/05/31 12:34:37;;;;;;;;;5.75;4.00;;;;;;;;5079323;27;51122;-46
2022/05/31 12:37:24;;;;;;;;;6.50;5.25;;;;;;;;5081125;27;51078;-45
2022/05/31 12:40:27;;;;;;;;;8.75;6.50;;;;;;;;5078223;27;51107;-43
2022/05/31 12:43:16;;;;;;;;;9.75;6.00;;;;;;;;5063260;27;51208;-48
2022/05/31 12:46:20;;;;;;;;;4.50;3.75;;;;;;;;5062393;27;51050;-45
2022/05/31 12:49:23;;;;;;;;;11.75;8.75;;;;;;;;5081289;27;50990;-44
2022/05/31 12:52:58;;;;;;;;;10.00;7.25;;;;;;;;5079996;27;51119;-43
2022/05/31 12:55:42;;;;;;;;;9.00;6.00;;;;;;;;5075308;27;51244;-45
2022/05/31 12:58:39;;;;;;;;;11.25;6.75;;;;;;;;5080615;27;51084;-47
2022/05/31 13:01:24;;;;;;;;;8.50;7.50;;;;;;;;5065196;27;51493;-50
2022/05/31 13:04:10;;;;;;;;;7.25;6.50;;;;;;;;5080138;27;51034;-45
2022/05/31 13:07:02;;;;;;;;;10.50;6.00;;;;;;;;5071187;27;51106;-46
2022/05/31 13:09:47;;;;;;;;;3.75;2.00;;;;;;;;5077834;27;51322;-46
2022/05/31 13:21:52;;;;;;;;;9.25;4.00;;;;;;;;5079645;27;51097;-47
2022/05/31 13:24:46;;;;;;;;;3.25;3.00;;;;;;;;5079285;27;51145;-46
2022/05/31 13:27:37;;;;;;;;;8.25;3.00;;;;;;;;5079814;27;51093;-48
2022/05/31 13:30:33;;;;;;;;;3.25;3.25;;;;;;;;5079964;27;51094;-48
2022/05/31 13:33:19;;;;;;;;;5.75;4.00;;;;;;;;5079473;27;51117;-56
2022/05/31 13:36:16;;;;;;;;;6.25;4.25;;;;;;;;5078692;27;51368;-54
2022/05/31 13:39:06;;;;;;;;;8.75;5.75;;;;;;;;5079450;27;51205;-56
2022/05/31 13:41:52;;;;;;;;;10.50;7.25;;;;;;;;5078490;27;51087;-56
2022/05/31 13:44:39;;;;;;;;;10.75;8.00;;;;;;;;5073048;27;51474;-57
2022/05/31 13:47:24;;;;;;;;;10.25;7.25;;;;;;;;5080048;27;51055;-57
2022/05/31 13:50:16;;;;;;;;;16.50;10.50;;;;;;;;4912217;27;4808818;-56
2022/05/31 13:53:19;;;;;;;;;8.75;8.00;;;;;;;;5115659;27;8771;-57
2022/05/31 13:56:03;;;;;;;;;10.00;7.00;;;;;;;;5116844;27;8766;-58
2022/05/31 13:58:49;;;;;;;;;18.25;12.50;;;;;;;;5116856;27;8787;-58
2022/05/31 14:01:40;;;;;;;;;15.50;10.50;;;;;;;;5115839;27;9534;-57
2022/05/31 14:04:34;;;;;;;;;14.50;11.00;;;;;;;;5117049;27;8790;-57
2022/05/31 14:07:32;;;;;;;;;12.00;9.75;;;;;;;;5117423;27;8782;-57
2022/05/31 14:10:20;;;;;;;;;10.75;10.50;;;;;;;;5105420;27;9570;-57
2022/05/31 14:13:09;;;;;;;;;15.25;10.00;;;;;;;;5116973;27;8783;-57
2022/05/31 14:16:12;;;;;;;;;10.75;10.00;;;;;;;;5116958;27;8778;-57
2022/05/31 14:18:59;;;;;;;;;14.25;10.00;;;;;;;;5116991;27;9518;-56
2022/05/31 14:21:46;;;;;;;;;17.25;10.25;;;;;;;;5116931;27;8918;-57
2022/05/31 14:24:32;;;;;;;;;14.00;10.50;;;;;;;;5117113;27;8771;-57
2022/05/31 14:27:28;;;;;;;;;11.75;9.00;;;;;;;;5115844;27;9573;-57
2022/05/31 14:30:28;;;;;;;;;13.00;10.25;;;;;;;;5117074;27;8775;-57
2022/05/31 14:33:13;;;;;;;;;13.25;9.00;;;;;;;;5116586;27;8790;-51
2022/05/31 14:36:00;;;;;;;;;8.50;6.25;;;;;;;;5116485;28;8755;-50
2022/05/31 14:38:46;;;;;;;;;15.75;12.00;;;;;;;;5116740;28;8786;-48
2022/05/31 14:41:40;;;;;;;;;9.00;9.00;;;;;;;;5115686;28;8803;-50
2022/05/31 14:45:02;;;;;;;;;10.50;9.50;;;;;;;;5116817;28;8786;-50
2022/05/31 14:47:46;;;;;;;;;9.50;7.25;;;;;;;;5116817;28;8790;-48
2022/05/31 14:50:32;;;;;;;;;12.50;8.50;;;;;;;;5116782;28;8904;-51
2022/05/31 14:53:28;;;;;;;;;8.75;6.00;;;;;;;;5116178;28;8823;-51
2022/05/31 14:56:38;;;;;;;;;9.00;8.00;;;;;;;;5115955;28;8774;-49
2022/05/31 14:59:24;;;;;;;;;8.50;7.75;;;;;;;;5116558;28;8767;-50
2022/05/31 15:02:22;;;;;;;;;10.00;9.00;;;;;;;;5116529;28;8799;-50
2022/05/31 15:05:08;;;;;;;;;10.00;9.25;;;;;;;;5101115;28;8775;-50
2022/05/31 15:07:57;;;;;;;;;8.50;7.00;;;;;;;;5115588;28;8783;-49
2022/05/31 15:10:54;;;;;;;;;16.50;13.25;;;;;;;;5114959;28;8791;-49
2022/05/31 15:19:41;;;;;;;;;10.00;6.75;;;;;;;;5116391;28;8791;-49
2022/05/31 15:22:28;;;;;;;;;10.75;9.00;;;;;;;;5116570;28;8822;-48
2022/05/31 15:25:33;;;;;;;;;13.25;11.25;;;;;;;;5100678;28;8774;-48
2022/05/31 15:28:19;;;;;;;;;12.50;8.75;;;;;;;;5115756;28;8783;-47
2022/05/31 15:31:28;;;;;;;;;12.25;7.25;;;;;;;;5116350;28;8787;-52
2022/05/31 15:34:13;;;;;;;;;12.00;7.75;;;;;;;;5116350;28;8807;-47
2022/05/31 15:37:02;;;;;;;;;10.00;8.00;;;;;;;;5108051;28;8794;-51
2022/05/31 15:39:57;;;;;;;;;10.25;3.75;;;;;;;;5111035;27;8803;-48
2022/05/31 15:43:02;;;;;;;;;5.00;2.00;;;;;;;;5120378;27;8799;-45
2022/05/31 15:45:47;;;;;;;;;8.50;3.50;;;;;;;;5120074;27;8767;-49
2022/05/31 15:48:32;;;;;;;;;4.75;3.00;;;;;;;;5119993;27;8798;-48
2022/05/31 15:51:20;;;;;;;;;2.50;2.25;;;;;;;;5120001;27;8794;-50
2022/05/31 15:54:37;;;;;;;;;6.75;3.00;;;;;;;;5119741;27;8787;-47
2022/05/31 15:57:27;;;;;;;;;7.25;4.00;;;;;;;;5056621;28;8909;-47
2022/05/31 16:00:18;;;;;;;;;7.50;4.00;;;;;;;;5068938;27;9577;-49
2022/05/31 16:03:05;;;;;;;;;7.75;6.00;;;;;;;;5119277;27;8783;-45
2022/05/31 16:05:59;;;;;;;;;11.25;7.25;;;;;;;;5119442;27;9549;-50
2022/05/31 16:08:43;;;;;;;;;5.25;4.75;;;;;;;;5119809;27;8798;-50
2022/05/31 16:11:29;;;;;;;;;11.00;8.75;;;;;;;;5119663;27;8803;-49
2022/05/31 16:14:17;;;;;;;;;7.50;5.00;;;;;;;;5119410;27;8782;-46
2022/05/31 16:17:17;;;;;;;;;8.00;6.25;;;;;;;;5119980;27;8795;-48
2022/05/31 16:20:03;;;;;;;;;3.50;2.75;;;;;;;;5119530;27;8771;-50
2022/05/31 16:22:50;;;;;;;;;4.75;4.50;;;;;;;;5116587;27;9542;-48
2022/05/31 16:25:36;;;;;;;;;7.25;6.00;;;;;;;;5112755;27;8799;-45
2022/05/31 16:28:25;;;;;;;;;6.25;4.50;;;;;;;;5119302;27;8791;-48
2022/05/31 16:31:11;;;;;;;;;5.25;5.25;;;;;;;;5119261;27;8783;-50
2022/05/31 16:33:56;;;;;;;;;9.00;6.75;;;;;;;;5092886;27;8830;-52
2022/05/31 16:36:43;;;;;;;;;5.75;4.00;;;;;;;;5112127;27;8774;-52
2022/05/31 16:42:45;;;;;;;;;5.25;3.75;;;;;;;;5118820;27;8787;-47
2022/05/31 16:45:36;;;;;;;;;6.75;4.75;;;;;;;;5118829;27;8771;-48
2022/05/31 16:48:26;;;;;;;;;5.75;3.75;;;;;;;;5118880;27;8767;-50
2022/05/31 16:51:24;;;;;;;;;3.25;3.25;;;;;;;;5118858;27;8783;-50
2022/05/31 16:54:19;;;;;;;;;6.00;5.00;;;;;;;;5118883;27;8778;-50
2022/05/31 16:57:07;;;;;;;;;21.50;18.00;;;;;;;;5118815;27;8778;-49
2022/05/31 16:59:54;;;;;;;;;12.00;10.75;;;;;;;;5118372;27;8818;-50
2022/05/31 17:02:39;;;;;;;;;16.25;14.00;;;;;;;;5118626;27;8810;-51
2022/05/31 17:05:24;;;;;;;;;14.25;9.00;;;;;;;;5118343;27;8775;-50
2022/05/31 17:14:24;;;;;;;;;16.75;12.00;;;;;;;;5118272;27;8771;-49
2022/05/31 17:17:13;;;;;;;;;10.50;9.50;;;;;;;;5116459;27;8787;-49
2022/05/31 17:20:16;;;;;;;;;26.25;20.25;;;;;;;;5118079;27;9557;-49
2022/05/31 17:23:14;;;;;;;;;19.25;15.00;;;;;;;;5118131;27;8770;-48
2022/05/31 17:26:04;;;;;;;;;11.50;11.50;;;;;;;;5118072;27;8849;-48
2022/05/31 17:28:50;;;;;;;;;10.00;5.50;;;;;;;;5118075;27;8775;-50
2022/05/31 17:31:52;;;;;;;;;5.50;5.50;;;;;;;;5118017;27;9703;-50
2022/05/31 17:34:38;;;;;;;;;8.25;4.25;;;;;;;;5097377;28;8785;-47
2022/05/31 17:37:26;;;;;;;;;6.00;5.00;;;;;;;;5097422;28;8797;-50